Time;durP1;ratioP1;P1;durP2;ratioP2;P2;SDS_P1;SDS_P2;PMS_P1;PMS_P2;Temp;Humidity;BMP_temperature;BMP_pressure;BME280_temperature;BME280_humidity;BME280_pressure;Samples;Min_cycle;Max_cycle;Signal;HPM_P1;HPM_P2
2022/11/02 00:00:13;;;;;;;5.40;1.83;;;9.30;99.90;;;;;;470495;252;27890;-69
2022/11/02 00:02:14;;;;;;;5.37;2.00;;;9.30;99.90;;;;;;468928;253;28008;-69
2022/11/02 00:04:15;;;;;;;4.60;1.90;;;9.30;99.90;;;;;;470995;251;28079;-69
2022/11/02 00:06:16;;;;;;;4.63;2.07;;;9.20;99.90;;;;;;470985;252;28876;-70
2022/11/02 00:08:18;;;;;;;2.27;1.67;;;9.20;99.90;;;;;;470499;252;29235;-69
2022/11/02 00:10:19;;;;;;;6.30;2.27;;;9.20;99.90;;;;;;470495;252;28469;-69
2022/11/02 00:12:20;;;;;;;2.93;1.73;;;9.20;99.90;;;;;;460630;257;28558;-71
2022/11/02 00:14:21;;;;;;;2.50;1.70;;;9.20;99.90;;;;;;470482;252;28467;-69
2022/11/02 00:16:24;;;;;;;5.17;2.00;;;9.20;99.90;;;;;;470496;252;27952;-69
2022/11/02 00:18:24;;;;;;;2.83;1.80;;;9.20;99.90;;;;;;468937;253;28046;-70
2022/11/02 00:20:28;;;;;;;2.57;1.83;;;9.20;99.90;;;;;;471000;251;27849;-71
2022/11/02 00:22:29;;;;;;;1.80;1.47;;;9.20;99.90;;;;;;470945;252;27875;-70
2022/11/02 00:24:31;;;;;;;3.37;1.83;;;9.10;99.90;;;;;;470437;253;27670;-69
2022/11/02 00:26:32;;;;;;;3.50;2.00;;;9.20;99.90;;;;;;470257;253;28038;-69
2022/11/02 00:28:33;;;;;;;2.93;1.90;;;9.30;99.90;;;;;;469970;252;28056;-69
2022/11/02 00:30:34;;;;;;;4.00;1.57;;;9.30;99.90;;;;;;472229;252;28374;-69
2022/11/02 00:32:35;;;;;;;3.33;1.50;;;9.30;99.90;;;;;;470796;252;27522;-70
2022/11/02 00:34:37;;;;;;;2.43;2.07;;;9.20;99.90;;;;;;470443;252;28531;-70
2022/11/02 00:36:38;;;;;;;4.50;1.60;;;9.20;99.90;;;;;;470488;252;28345;-69
2022/11/02 00:38:39;;;;;;;4.53;2.00;;;9.20;99.90;;;;;;470481;252;28087;-70
2022/11/02 00:40:40;;;;;;;2.03;1.83;;;9.20;99.90;;;;;;472367;252;28359;-71
2022/11/02 00:42:42;;;;;;;5.17;2.10;;;9.20;99.90;;;;;;470917;252;28445;-69
2022/11/02 00:44:43;;;;;;;3.53;2.20;;;9.30;99.90;;;;;;470481;252;27920;-69
2022/11/02 00:46:44;;;;;;;5.37;2.37;;;9.30;99.90;;;;;;470485;252;28043;-69
2022/11/02 00:48:45;;;;;;;2.67;1.80;;;9.30;99.90;;;;;;468956;253;27894;-69
2022/11/02 00:50:47;;;;;;;2.50;1.60;;;9.30;99.90;;;;;;466980;254;27902;-71
2022/11/02 00:52:48;;;;;;;2.87;1.77;;;9.30;99.90;;;;;;466974;255;27703;-69
2022/11/02 00:54:49;;;;;;;4.07;1.80;;;9.20;99.90;;;;;;466990;254;28067;-70
2022/11/02 00:56:50;;;;;;;3.40;2.00;;;9.20;99.90;;;;;;466984;254;27910;-69
2022/11/02 00:58:52;;;;;;;4.00;1.73;;;9.30;99.90;;;;;;466986;253;27857;-69
2022/11/02 01:00:55;;;;;;;3.50;1.83;;;9.30;99.90;;;;;;466981;254;27983;-71
2022/11/02 01:02:54;;;;;;;2.10;1.63;;;9.30;99.90;;;;;;466751;254;27854;-70
2022/11/02 01:04:55;;;;;;;7.80;2.03;;;9.30;99.90;;;;;;466944;254;28068;-70
2022/11/02 01:06:57;;;;;;;4.53;2.00;;;9.40;99.90;;;;;;466960;254;27978;-69
2022/11/02 01:08:58;;;;;;;3.77;2.10;;;9.30;99.90;;;;;;466955;254;27952;-69
2022/11/02 01:10:59;;;;;;;3.50;1.70;;;9.40;99.90;;;;;;466969;254;28041;-70
2022/11/02 01:13:00;;;;;;;2.50;1.80;;;9.40;99.90;;;;;;466973;254;27570;-69
2022/11/02 01:15:02;;;;;;;1.83;1.50;;;9.40;99.90;;;;;;466972;255;28447;-69
2022/11/02 01:17:03;;;;;;;6.63;2.10;;;9.40;99.90;;;;;;466980;254;28451;-69
2022/11/02 01:19:04;;;;;;;5.20;2.07;;;9.40;99.90;;;;;;466961;253;28369;-70
2022/11/02 01:21:05;;;;;;;5.63;2.00;;;9.40;99.90;;;;;;466954;254;27948;-70
2022/11/02 01:23:07;;;;;;;4.50;2.03;;;9.40;99.90;;;;;;466946;254;28920;-69
2022/11/02 01:25:08;;;;;;;3.83;1.73;;;9.40;99.90;;;;;;466946;253;28056;-69
2022/11/02 01:27:09;;;;;;;7.80;1.70;;;9.50;99.90;;;;;;466938;254;28002;-69
2022/11/02 01:29:11;;;;;;;4.23;2.37;;;9.50;99.90;;;;;;466950;254;27809;-70
2022/11/02 01:31:12;;;;;;;3.90;2.20;;;9.50;99.90;;;;;;466965;253;28034;-69
2022/11/02 01:33:13;;;;;;;6.30;2.70;;;9.60;99.90;;;;;;466956;254;27960;-69
2022/11/02 01:35:15;;;;;;;6.20;2.53;;;9.60;99.90;;;;;;466963;253;27934;-70
2022/11/02 01:37:15;;;;;;;9.10;2.50;;;9.70;99.90;;;;;;466923;251;27926;-69
2022/11/02 01:39:17;;;;;;;5.20;2.30;;;9.70;99.90;;;;;;466960;254;28316;-70
2022/11/02 01:41:18;;;;;;;6.53;2.27;;;9.70;99.90;;;;;;466960;255;28008;-70
2022/11/02 01:43:19;;;;;;;6.23;2.73;;;9.70;99.90;;;;;;466951;254;28033;-69
2022/11/02 01:45:20;;;;;;;5.60;2.30;;;9.60;99.90;;;;;;466944;254;27993;-70
2022/11/02 01:47:22;;;;;;;8.77;2.30;;;9.70;99.90;;;;;;466945;253;27932;-69
2022/11/02 01:49:23;;;;;;;9.33;2.17;;;9.70;99.90;;;;;;466951;254;28023;-69
2022/11/02 01:51:24;;;;;;;7.80;2.30;;;9.70;99.90;;;;;;466954;253;27794;-70
2022/11/02 01:53:25;;;;;;;5.57;2.30;;;9.70;99.90;;;;;;466958;254;28135;-69
2022/11/02 01:55:28;;;;;;;4.13;2.17;;;9.70;99.90;;;;;;466945;254;28563;-69
2022/11/02 01:57:28;;;;;;;6.97;2.47;;;9.80;99.90;;;;;;466894;255;28428;-69
2022/11/02 01:59:29;;;;;;;6.03;2.57;;;9.80;99.90;;;;;;466977;254;28470;-69
2022/11/02 02:01:30;;;;;;;2.30;1.80;;;9.80;99.90;;;;;;466960;253;28180;-69
2022/11/02 02:03:32;;;;;;;5.03;1.80;;;9.80;99.90;;;;;;466951;254;28434;-70
2022/11/02 02:05:33;;;;;;;3.40;1.97;;;9.90;99.90;;;;;;466963;255;28138;-70
2022/11/02 02:07:34;;;;;;;5.47;2.00;;;9.90;99.90;;;;;;466962;253;27962;-69
2022/11/02 02:09:35;;;;;;;4.20;1.87;;;9.90;99.90;;;;;;466956;254;27946;-69
2022/11/02 02:11:37;;;;;;;9.70;2.80;;;9.90;99.90;;;;;;466928;255;27974;-71
2022/11/02 02:13:38;;;;;;;12.37;2.93;;;9.90;99.90;;;;;;466953;254;28062;-69
2022/11/02 02:15:39;;;;;;;4.87;2.17;;;9.90;99.90;;;;;;466952;254;28001;-70
2022/11/02 02:17:40;;;;;;;5.70;2.40;;;9.90;99.90;;;;;;466838;253;27965;-69
2022/11/02 02:19:42;;;;;;;5.07;2.07;;;9.90;99.90;;;;;;466956;254;28174;-69
2022/11/02 02:21:43;;;;;;;2.93;1.93;;;9.90;99.90;;;;;;466937;253;28057;-70
2022/11/02 02:23:44;;;;;;;4.80;2.10;;;9.90;99.90;;;;;;466934;255;27908;-70
2022/11/02 02:25:45;;;;;;;3.60;2.00;;;10.00;99.90;;;;;;466949;254;28205;-70
2022/11/02 02:27:47;;;;;;;2.80;1.97;;;10.00;99.90;;;;;;466936;254;28106;-69
2022/11/02 02:29:48;;;;;;;11.70;2.10;;;10.00;99.90;;;;;;466957;254;28525;-69
2022/11/02 02:31:49;;;;;;;6.53;1.90;;;10.10;99.90;;;;;;466949;253;28543;-70
2022/11/02 02:33:50;;;;;;;2.73;1.93;;;10.10;99.90;;;;;;466965;254;28358;-69
2022/11/02 02:35:52;;;;;;;5.13;1.63;;;10.20;99.90;;;;;;466962;254;27957;-70
2022/11/02 02:37:53;;;;;;;4.37;2.03;;;10.30;99.90;;;;;;466971;253;28025;-70
2022/11/02 02:39:54;;;;;;;3.33;2.10;;;10.30;99.90;;;;;;466939;254;27816;-69
2022/11/02 02:41:57;;;;;;;4.27;1.77;;;10.40;99.90;;;;;;466651;254;27829;-70
2022/11/02 02:43:57;;;;;;;4.27;2.20;;;10.40;99.90;;;;;;466912;255;27882;-70
2022/11/02 02:45:58;;;;;;;3.27;1.83;;;10.40;99.90;;;;;;466975;254;27994;-70
2022/11/02 02:47:59;;;;;;;3.93;1.90;;;10.50;99.90;;;;;;466956;255;28109;-69
2022/11/02 02:50:01;;;;;;;6.20;2.00;;;10.50;99.90;;;;;;466946;254;27934;-70
2022/11/02 02:52:02;;;;;;;6.53;1.90;;;10.50;99.90;;;;;;466963;254;27840;-71
2022/11/02 02:54:03;;;;;;;3.20;1.57;;;10.50;99.90;;;;;;466953;253;28492;-70
2022/11/02 02:56:04;;;;;;;5.47;2.07;;;10.50;99.90;;;;;;466934;254;29242;-70
2022/11/02 02:58:05;;;;;;;5.00;1.87;;;10.50;99.90;;;;;;466940;254;28501;-69
2022/11/02 03:00:07;;;;;;;3.50;1.90;;;10.50;99.90;;;;;;466951;253;28480;-70
2022/11/02 03:02:08;;;;;;;6.70;2.33;;;10.50;99.90;;;;;;466955;254;28029;-72
2022/11/02 03:04:09;;;;;;;4.53;2.33;;;10.50;99.90;;;;;;466947;255;28015;-70
2022/11/02 03:06:10;;;;;;;3.70;1.83;;;10.50;99.90;;;;;;466961;254;27479;-70
2022/11/02 03:08:12;;;;;;;2.90;1.50;;;10.60;99.90;;;;;;466932;254;27930;-70
2022/11/02 03:10:13;;;;;;;2.17;1.87;;;10.60;99.90;;;;;;466936;253;28043;-69
2022/11/02 03:12:14;;;;;;;4.00;1.97;;;10.50;99.90;;;;;;466964;254;27940;-71
2022/11/02 03:14:15;;;;;;;6.43;2.40;;;10.60;99.90;;;;;;466963;254;27887;-69
2022/11/02 03:16:17;;;;;;;3.90;2.17;;;10.60;99.90;;;;;;466938;255;27842;-70
2022/11/02 03:18:18;;;;;;;2.57;2.00;;;10.60;99.90;;;;;;466947;254;28046;-70
2022/11/02 03:20:19;;;;;;;5.13;2.17;;;10.60;99.90;;;;;;466936;255;28288;-69
2022/11/02 03:22:20;;;;;;;3.17;1.90;;;10.60;99.90;;;;;;466723;254;28800;-70
2022/11/02 03:24:22;;;;;;;7.40;1.90;;;10.60;99.90;;;;;;466960;254;28474;-69
2022/11/02 03:26:23;;;;;;;4.00;2.20;;;10.60;99.90;;;;;;466797;253;28095;-70
2022/11/02 03:28:24;;;;;;;3.93;2.40;;;10.60;99.90;;;;;;466981;255;27754;-69
2022/11/02 03:30:25;;;;;;;5.53;2.17;;;10.60;99.90;;;;;;466962;253;27800;-70
2022/11/02 03:32:27;;;;;;;5.40;1.70;;;10.60;99.90;;;;;;466958;254;28022;-71
2022/11/02 03:34:28;;;;;;;4.27;2.20;;;10.60;99.90;;;;;;466954;254;27971;-70
2022/11/02 03:36:29;;;;;;;6.30;1.90;;;10.60;99.90;;;;;;466953;253;27859;-70
2022/11/02 03:38:31;;;;;;;4.80;2.20;;;10.60;99.90;;;;;;466967;254;27937;-70
2022/11/02 03:40:32;;;;;;;8.53;2.20;;;10.70;99.90;;;;;;466935;255;27934;-70
2022/11/02 03:42:33;;;;;;;5.20;1.93;;;10.70;99.90;;;;;;466961;254;28039;-71
2022/11/02 03:44:34;;;;;;;4.00;2.00;;;10.70;99.90;;;;;;466952;254;28361;-69
2022/11/02 03:46:35;;;;;;;3.33;2.33;;;10.70;99.90;;;;;;466973;253;28622;-70
2022/11/02 03:48:37;;;;;;;3.90;2.27;;;10.70;99.90;;;;;;466956;254;28449;-70
2022/11/02 03:50:38;;;;;;;6.40;1.83;;;10.80;99.90;;;;;;466923;255;27690;-69
2022/11/02 03:52:39;;;;;;;5.27;2.00;;;10.80;99.90;;;;;;466969;254;27670;-70
2022/11/02 03:54:41;;;;;;;5.60;2.00;;;10.80;99.90;;;;;;466960;254;27900;-69
2022/11/02 03:56:42;;;;;;;6.97;2.63;;;10.80;99.90;;;;;;466980;253;27974;-69
2022/11/02 03:58:43;;;;;;;7.13;2.17;;;10.70;99.90;;;;;;466977;254;27961;-70
2022/11/02 04:00:44;;;;;;;4.33;2.13;;;10.70;99.90;;;;;;466987;254;27702;-70
2022/11/02 04:02:46;;;;;;;9.90;2.50;;;10.70;99.90;;;;;;466986;254;27796;-70
2022/11/02 04:04:47;;;;;;;8.10;2.47;;;10.70;99.90;;;;;;466979;254;27880;-70
2022/11/02 04:06:48;;;;;;;9.53;1.90;;;10.70;99.90;;;;;;466989;254;28433;-70
2022/11/02 04:08:49;;;;;;;5.83;1.90;;;10.70;99.90;;;;;;466942;255;28554;-69
2022/11/02 04:15:30;;;;;;;5.73;2.30;;;10.50;99.90;;;;;;459752;259;28693;-70
2022/11/02 04:19:50;;;;;;;3.73;2.27;;;10.50;99.90;;;;;;470967;252;28496;-70
2022/11/02 04:26:31;;;;;;;3.17;1.57;;;10.40;99.90;;;;;;472338;251;27916;-70
2022/11/02 04:28:33;;;;;;;3.67;1.73;;;10.40;99.90;;;;;;470985;252;27771;-70
2022/11/02 04:30:34;;;;;;;7.17;2.20;;;10.40;99.90;;;;;;470496;252;27923;-70
2022/11/02 04:34:55;;;;;;;6.07;1.93;;;10.40;99.90;;;;;;472319;252;28064;-70
2022/11/02 04:36:56;;;;;;;4.60;2.07;;;10.30;99.90;;;;;;470965;252;28880;-71
2022/11/02 04:38:57;;;;;;;6.10;2.03;;;10.30;99.90;;;;;;470510;252;28190;-70
2022/11/02 04:43:18;;;;;;;5.57;2.33;;;10.30;99.90;;;;;;470496;251;27952;-69
2022/11/02 04:45:20;;;;;;;5.83;1.97;;;10.30;99.90;;;;;;468999;253;27986;-70
2022/11/02 04:47:21;;;;;;;3.60;2.00;;;10.30;99.90;;;;;;470972;251;27634;-70
2022/11/02 04:49:22;;;;;;;3.23;1.97;;;10.30;99.90;;;;;;470995;252;27867;-70
2022/11/02 04:51:23;;;;;;;4.97;1.73;;;10.30;99.90;;;;;;470483;251;28067;-70
2022/11/02 04:53:25;;;;;;;6.60;1.73;;;10.40;99.90;;;;;;470475;252;28295;-70
2022/11/02 04:55:26;;;;;;;6.57;2.30;;;10.40;99.90;;;;;;472393;252;28515;-70
2022/11/02 04:57:27;;;;;;;2.83;1.70;;;10.40;99.90;;;;;;470983;252;28171;-70
2022/11/02 04:59:28;;;;;;;3.10;2.13;;;10.40;99.90;;;;;;470486;252;28622;-70
2022/11/02 05:01:30;;;;;;;3.83;1.70;;;10.40;99.90;;;;;;470480;252;28411;-70
2022/11/02 05:03:31;;;;;;;2.50;1.90;;;10.50;99.90;;;;;;468943;253;28021;-71
2022/11/02 05:05:32;;;;;;;5.70;2.20;;;10.40;99.90;;;;;;470975;251;28149;-70
2022/11/02 05:07:33;;;;;;;2.50;2.00;;;10.50;99.90;;;;;;470964;252;28122;-70
2022/11/02 05:09:35;;;;;;;5.30;1.80;;;10.50;99.90;;;;;;470462;252;27860;-70
2022/11/02 05:11:36;;;;;;;5.87;1.80;;;10.50;99.90;;;;;;470486;252;27943;-70
2022/11/02 05:13:37;;;;;;;5.13;1.83;;;10.50;99.90;;;;;;468967;253;28129;-72
2022/11/02 05:15:38;;;;;;;6.80;1.87;;;10.50;99.90;;;;;;470978;251;28169;-70
2022/11/02 05:17:40;;;;;;;3.60;1.97;;;10.50;99.90;;;;;;470998;252;27970;-71
2022/11/02 05:19:41;;;;;;;2.57;1.77;;;10.50;99.90;;;;;;470490;251;28074;-70
2022/11/02 05:21:43;;;;;;;4.07;2.00;;;10.50;99.90;;;;;;470484;253;28773;-70
2022/11/02 05:23:44;;;;;;;3.77;2.23;;;10.50;99.90;;;;;;470479;253;28622;-70
2022/11/02 05:25:45;;;;;;;3.00;1.70;;;10.40;99.90;;;;;;470454;253;28430;-71
2022/11/02 05:27:46;;;;;;;3.40;1.90;;;10.40;99.90;;;;;;470497;252;27919;-70
2022/11/02 05:29:47;;;;;;;2.33;2.00;;;10.50;99.90;;;;;;468970;253;28144;-70
2022/11/02 05:31:48;;;;;;;4.53;1.97;;;10.50;99.90;;;;;;470992;251;28124;-70
2022/11/02 05:33:50;;;;;;;5.00;1.87;;;10.50;99.90;;;;;;470989;252;28110;-70
2022/11/02 05:35:51;;;;;;;4.93;2.10;;;10.50;99.90;;;;;;470493;251;27909;-70
2022/11/02 05:37:52;;;;;;;4.07;1.97;;;10.50;99.90;;;;;;472318;252;28011;-71
2022/11/02 05:39:53;;;;;;;3.63;2.17;;;10.50;99.90;;;;;;470989;252;27967;-70
2022/11/02 05:41:55;;;;;;;9.73;2.23;;;10.50;99.90;;;;;;470505;251;28463;-70
2022/11/02 05:43:56;;;;;;;5.17;2.40;;;10.40;99.90;;;;;;470506;252;28514;-70
2022/11/02 05:45:57;;;;;;;4.33;2.40;;;10.40;99.90;;;;;;472331;252;27991;-70
2022/11/02 05:47:58;;;;;;;4.40;2.10;;;10.40;99.90;;;;;;471011;252;28006;-70
2022/11/02 05:50:00;;;;;;;5.37;2.20;;;10.50;99.90;;;;;;470504;252;27766;-70
2022/11/02 05:52:01;;;;;;;5.03;2.10;;;10.50;99.90;;;;;;470506;253;27734;-70
2022/11/02 05:54:02;;;;;;;9.70;2.80;;;10.50;99.90;;;;;;468958;253;27886;-71
2022/11/02 05:56:03;;;;;;;4.27;2.03;;;10.50;99.90;;;;;;471004;251;28007;-70
2022/11/02 05:58:05;;;;;;;4.20;2.03;;;10.50;99.90;;;;;;470992;252;28004;-70
2022/11/02 06:00:06;;;;;;;6.63;2.97;;;10.50;99.90;;;;;;470491;251;27793;-70
2022/11/02 06:02:07;;;;;;;8.53;2.10;;;10.50;99.90;;;;;;470505;252;28014;-70
2022/11/02 06:04:08;;;;;;;2.53;2.30;;;10.50;99.90;;;;;;472356;252;28471;-71
2022/11/02 06:06:11;;;;;;;5.07;1.90;;;10.50;99.90;;;;;;470984;252;28505;-70
2022/11/02 06:08:11;;;;;;;7.53;2.60;;;10.50;99.90;;;;;;470457;252;28427;-70
2022/11/02 06:10:12;;;;;;;3.90;2.00;;;10.40;99.90;;;;;;470507;253;28376;-70
2022/11/02 06:12:13;;;;;;;3.03;2.00;;;10.40;99.90;;;;;;470519;253;27785;-70
2022/11/02 06:14:15;;;;;;;3.97;2.27;;;10.40;99.90;;;;;;470480;253;27916;-70
2022/11/02 06:16:16;;;;;;;4.67;2.30;;;10.40;99.90;;;;;;470481;252;27945;-70
2022/11/02 06:18:17;;;;;;;3.30;1.97;;;10.30;99.90;;;;;;468967;253;28003;-70
2022/11/02 06:20:19;;;;;;;2.57;1.90;;;10.30;99.90;;;;;;470988;251;27860;-72
2022/11/02 06:22:20;;;;;;;2.57;1.80;;;10.20;99.90;;;;;;470898;252;28097;-70
2022/11/02 06:24:21;;;;;;;2.70;2.00;;;10.10;99.90;;;;;;470416;252;27911;-70
2022/11/02 06:26:22;;;;;;;3.10;2.50;;;10.10;99.90;;;;;;470409;253;27605;-70
2022/11/02 06:28:23;;;;;;;6.30;2.43;;;10.10;99.90;;;;;;470452;252;27892;-70
2022/11/02 06:30:25;;;;;;;11.00;2.40;;;10.10;99.90;;;;;;468926;253;28508;-71
2022/11/02 06:32:26;;;;;;;4.10;2.50;;;10.10;99.90;;;;;;470923;251;28480;-70
2022/11/02 06:34:27;;;;;;;4.57;2.30;;;10.10;99.90;;;;;;470857;252;28635;-70
2022/11/02 06:36:28;;;;;;;4.40;2.60;;;10.10;99.90;;;;;;470435;251;27844;-70
2022/11/02 06:38:30;;;;;;;4.83;2.27;;;10.00;99.90;;;;;;470476;252;27937;-70
2022/11/02 06:40:31;;;;;;;5.57;2.30;;;10.10;99.90;;;;;;472356;252;27987;-71
2022/11/02 06:42:32;;;;;;;2.90;1.90;;;10.10;99.90;;;;;;470967;252;28101;-70
2022/11/02 06:44:33;;;;;;;3.53;2.30;;;10.10;99.90;;;;;;470495;252;27819;-70
2022/11/02 06:46:35;;;;;;;7.33;2.20;;;10.20;99.90;;;;;;470468;252;27979;-70
2022/11/02 06:48:36;;;;;;;3.80;2.23;;;10.20;99.90;;;;;;460663;257;27550;-70
2022/11/02 06:50:37;;;;;;;2.93;2.67;;;10.10;99.90;;;;;;470493;252;27940;-70
2022/11/02 06:52:38;;;;;;;1.80;1.70;;;10.10;99.90;;;;;;470485;252;27983;-70
2022/11/02 06:54:40;;;;;;;2.53;1.90;;;10.10;99.90;;;;;;468940;253;28347;-70
2022/11/02 06:56:41;;;;;;;1.83;1.73;;;10.00;99.90;;;;;;470967;251;28576;-70
2022/11/02 06:58:42;;;;;;;7.40;2.27;;;10.00;99.90;;;;;;470975;252;28335;-70
2022/11/02 07:00:43;;;;;;;4.20;1.90;;;10.00;99.90;;;;;;470485;252;28139;-71
2022/11/02 07:02:45;;;;;;;2.07;1.87;;;10.00;99.90;;;;;;470481;252;27765;-70
2022/11/02 07:04:46;;;;;;;2.73;1.90;;;10.00;99.90;;;;;;472290;252;27690;-70
2022/11/02 07:06:47;;;;;;;2.17;1.70;;;10.10;99.90;;;;;;470945;252;27692;-72
2022/11/02 07:08:49;;;;;;;2.63;1.80;;;10.10;99.90;;;;;;470482;252;27674;-70
2022/11/02 07:10:50;;;;;;;4.47;1.80;;;10.10;99.90;;;;;;470481;253;27819;-70
2022/11/02 07:12:52;;;;;;;4.37;1.80;;;10.10;99.90;;;;;;468956;253;27933;-70
2022/11/02 07:14:52;;;;;;;2.50;1.63;;;10.20;99.90;;;;;;470958;251;28067;-71
2022/11/02 07:16:53;;;;;;;1.80;1.70;;;10.20;99.90;;;;;;470973;246;28044;-71
2022/11/02 07:18:55;;;;;;;2.43;1.60;;;10.20;99.90;;;;;;470473;251;28521;-70
2022/11/02 07:20:56;;;;;;;4.37;2.00;;;10.10;99.90;;;;;;470391;252;28394;-70
2022/11/02 07:22:57;;;;;;;6.57;2.50;;;10.10;99.90;;;;;;472342;252;28401;-70
2022/11/02 07:24:58;;;;;;;6.73;2.13;;;10.10;99.90;;;;;;470957;252;28107;-70
2022/11/02 07:27:00;;;;;;;3.37;2.07;;;10.00;99.90;;;;;;470458;252;27571;-71
2022/11/02 07:29:01;;;;;;;3.50;2.10;;;10.00;99.90;;;;;;470485;253;27871;-70
2022/11/02 07:31:02;;;;;;;2.30;2.00;;;10.00;99.90;;;;;;470446;253;27564;-70
2022/11/02 07:33:04;;;;;;;2.60;2.07;;;10.10;99.90;;;;;;470505;252;27894;-70
2022/11/02 07:35:05;;;;;;;3.50;2.30;;;10.10;99.90;;;;;;472323;252;27783;-70
2022/11/02 07:37:06;;;;;;;5.27;2.33;;;10.10;99.90;;;;;;470979;252;28374;-71
2022/11/02 07:39:07;;;;;;;7.80;2.30;;;10.20;99.90;;;;;;470491;252;27770;-70
2022/11/02 07:41:09;;;;;;;4.30;2.60;;;10.30;99.90;;;;;;470490;253;27831;-70
2022/11/02 07:43:10;;;;;;;2.47;2.27;;;10.30;99.90;;;;;;470498;253;28113;-70
2022/11/02 07:45:11;;;;;;;3.23;2.00;;;10.40;99.90;;;;;;470462;253;28042;-70
2022/11/02 07:47:12;;;;;;;3.03;1.90;;;10.50;99.90;;;;;;472289;252;28281;-72
2022/11/02 07:49:14;;;;;;;3.13;2.10;;;10.60;99.90;;;;;;470962;252;28134;-71
2022/11/02 07:51:15;;;;;;;5.03;2.17;;;10.60;99.90;;;;;;470413;252;27983;-70
2022/11/02 07:53:16;;;;;;;4.93;2.30;;;10.60;99.90;;;;;;470449;252;27976;-70
2022/11/02 07:55:17;;;;;;;3.53;2.07;;;10.70;99.90;;;;;;468893;253;27996;-70
2022/11/02 07:57:19;;;;;;;4.43;2.50;;;10.70;99.90;;;;;;470881;251;28148;-70
2022/11/02 07:59:21;;;;;;;3.50;2.37;;;10.70;99.90;;;;;;470818;252;28138;-70
2022/11/02 08:01:21;;;;;;;4.63;2.10;;;10.70;99.90;;;;;;470453;252;28066;-71
2022/11/02 08:03:22;;;;;;;6.43;2.37;;;10.70;99.90;;;;;;470440;253;27863;-70
2022/11/02 08:05:24;;;;;;;4.70;2.37;;;10.70;99.90;;;;;;470440;252;28269;-70
2022/11/02 08:07:25;;;;;;;5.27;2.60;;;10.70;99.90;;;;;;468920;253;28321;-71
2022/11/02 08:09:26;;;;;;;6.30;2.57;;;10.70;99.90;;;;;;470932;251;28662;-70
2022/11/02 08:11:27;;;;;;;4.40;2.50;;;10.70;99.90;;;;;;470982;252;28390;-70
2022/11/02 08:13:29;;;;;;;3.50;1.93;;;10.70;99.90;;;;;;470486;251;28410;-70
2022/11/02 08:15:30;;;;;;;4.23;1.90;;;10.80;99.90;;;;;;470465;252;28010;-70
2022/11/02 08:17:31;;;;;;;6.53;2.10;;;10.70;99.90;;;;;;472342;252;28034;-71
2022/11/02 08:19:32;;;;;;;3.03;1.80;;;10.70;99.90;;;;;;470950;252;27913;-70
2022/11/02 08:21:34;;;;;;;2.67;1.70;;;10.80;99.90;;;;;;470484;253;28022;-71
2022/11/02 08:23:35;;;;;;;4.30;1.93;;;10.80;99.90;;;;;;470498;253;27909;-70
2022/11/02 08:25:36;;;;;;;4.40;1.80;;;10.80;99.90;;;;;;470462;252;28098;-70
2022/11/02 08:27:37;;;;;;;11.73;2.30;;;10.70;99.90;;;;;;472327;252;27993;-70
2022/11/02 08:29:39;;;;;;;3.27;1.70;;;10.80;99.90;;;;;;470985;252;28257;-70
2022/11/02 08:31:40;;;;;;;4.77;2.10;;;10.80;99.90;;;;;;470478;252;28543;-71
2022/11/02 08:33:41;;;;;;;9.00;2.23;;;10.80;99.90;;;;;;470497;253;29185;-70
2022/11/02 08:35:42;;;;;;;7.43;2.90;;;10.70;99.90;;;;;;470465;253;28598;-70
2022/11/02 08:37:44;;;;;;;7.43;2.20;;;10.80;99.90;;;;;;470486;252;28497;-71
2022/11/02 08:39:45;;;;;;;5.97;2.30;;;10.80;99.90;;;;;;468965;253;28104;-70
2022/11/02 08:41:46;;;;;;;8.80;2.50;;;10.70;99.90;;;;;;470989;251;28238;-70
2022/11/02 08:43:47;;;;;;;6.57;2.30;;;10.70;99.90;;;;;;470983;252;28137;-70
2022/11/02 08:45:49;;;;;;;8.17;2.00;;;10.80;99.90;;;;;;470480;252;28013;-70
2022/11/02 08:47:50;;;;;;;6.63;2.20;;;10.90;99.90;;;;;;470486;252;28000;-72
2022/11/02 08:49:51;;;;;;;6.50;2.20;;;11.10;99.90;;;;;;468988;253;28121;-70
2022/11/02 08:51:52;;;;;;;5.50;2.17;;;11.20;99.90;;;;;;470989;251;28171;-70
2022/11/02 08:53:54;;;;;;;8.50;2.37;;;11.30;99.90;;;;;;471010;252;28117;-70
2022/11/02 08:55:55;;;;;;;5.97;2.43;;;11.30;99.90;;;;;;470497;251;28287;-70
2022/11/02 08:57:56;;;;;;;8.53;2.53;;;11.40;99.90;;;;;;470520;252;28697;-71
2022/11/02 08:59:57;;;;;;;4.23;2.37;;;11.40;99.90;;;;;;469001;253;28469;-70
2022/11/02 09:01:59;;;;;;;5.00;2.30;;;11.40;99.90;;;;;;470980;251;28516;-70
2022/11/02 09:04:00;;;;;;;10.17;2.53;;;11.50;99.90;;;;;;470991;252;28116;-71
2022/11/02 09:06:01;;;;;;;4.73;2.10;;;11.50;99.90;;;;;;470484;251;28287;-70
2022/11/02 09:08:02;;;;;;;7.80;2.20;;;11.50;99.90;;;;;;470486;252;28184;-71
2022/11/02 09:10:04;;;;;;;7.77;2.30;;;11.60;99.90;;;;;;468937;253;28335;-70
2022/11/02 09:12:05;;;;;;;5.60;2.13;;;11.60;99.90;;;;;;466951;254;28337;-70
2022/11/02 09:14:06;;;;;;;6.90;2.20;;;11.70;99.90;;;;;;466935;254;28165;-70
2022/11/02 09:16:07;;;;;;;5.40;2.27;;;11.60;99.90;;;;;;466936;253;28303;-70
2022/11/02 09:18:09;;;;;;;5.27;2.10;;;11.70;99.90;;;;;;466955;254;28302;-71
2022/11/02 09:20:10;;;;;;;9.03;2.77;;;11.80;99.90;;;;;;466938;254;28393;-71
2022/11/02 09:22:11;;;;;;;5.93;2.53;;;11.90;99.90;;;;;;466929;253;28698;-71
2022/11/02 09:24:12;;;;;;;7.07;2.40;;;12.00;99.90;;;;;;466953;254;28738;-70
2022/11/02 09:26:14;;;;;;;7.10;2.40;;;12.00;99.90;;;;;;466871;253;29079;-71
2022/11/02 09:28:15;;;;;;;6.50;2.50;;;11.90;99.90;;;;;;465529;254;36434;-71
2022/11/02 09:30:16;;;;;;;7.50;2.40;;;12.00;99.90;;;;;;466947;254;27183;-70
2022/11/02 09:32:17;;;;;;;7.13;2.30;;;12.10;99.90;;;;;;466937;253;28069;-70
2022/11/02 09:34:19;;;;;;;7.40;2.60;;;12.00;99.90;;;;;;466951;254;28578;-70
2022/11/02 09:36:20;;;;;;;11.07;2.73;;;12.20;99.90;;;;;;466928;254;28450;-71
2022/11/02 09:38:21;;;;;;;11.03;2.43;;;12.20;99.90;;;;;;466945;255;28173;-71
2022/11/02 09:40:22;;;;;;;4.90;1.97;;;12.30;99.90;;;;;;466962;254;28288;-71
2022/11/02 09:42:24;;;;;;;6.87;2.37;;;12.30;99.90;;;;;;466955;253;29345;-71
2022/11/02 09:44:26;;;;;;;5.80;2.27;;;12.50;99.90;;;;;;466959;254;28741;-70
2022/11/02 09:46:26;;;;;;;6.87;2.57;;;12.30;99.90;;;;;;466883;254;28169;-71
2022/11/02 09:48:27;;;;;;;7.30;2.10;;;12.10;99.90;;;;;;466938;254;28335;-72
2022/11/02 09:50:29;;;;;;;7.87;2.30;;;12.10;99.90;;;;;;466843;254;28737;-70
2022/11/02 09:52:30;;;;;;;13.47;3.30;;;12.20;99.90;;;;;;466937;254;28068;-71
2022/11/02 09:54:31;;;;;;;4.93;2.53;;;12.20;99.90;;;;;;466940;253;28421;-70
2022/11/02 09:56:32;;;;;;;7.40;2.50;;;12.20;99.90;;;;;;466930;254;28312;-71
2022/11/02 09:58:34;;;;;;;5.30;1.87;;;12.10;99.90;;;;;;466953;253;28278;-71
2022/11/02 10:00:35;;;;;;;8.60;3.00;;;11.90;99.90;;;;;;466956;254;28264;-70
2022/11/02 10:02:36;;;;;;;9.43;2.57;;;11.80;99.90;;;;;;466965;254;28546;-71
2022/11/02 10:04:37;;;;;;;9.03;2.30;;;11.80;99.90;;;;;;466956;253;28858;-70
2022/11/02 10:06:39;;;;;;;4.77;2.60;;;11.80;99.90;;;;;;466923;254;28547;-70
2022/11/02 10:08:40;;;;;;;7.90;2.07;;;11.80;99.90;;;;;;466912;255;28981;-71
2022/11/02 10:10:41;;;;;;;4.70;2.50;;;11.90;99.90;;;;;;466968;254;28375;-70
2022/11/02 10:12:42;;;;;;;8.77;2.50;;;11.90;99.90;;;;;;466962;254;28198;-70
2022/11/02 10:14:45;;;;;;;4.90;1.83;;;12.00;99.90;;;;;;466939;253;28286;-70
2022/11/02 10:16:45;;;;;;;4.67;1.77;;;12.10;99.90;;;;;;466931;255;28230;-70
2022/11/02 10:18:48;;;;;;;12.70;2.80;;;12.20;99.90;;;;;;466930;254;28420;-71
2022/11/02 10:20:47;;;;;;;4.57;1.97;;;12.30;99.90;;;;;;466739;254;28406;-70
2022/11/02 10:22:49;;;;;;;8.00;2.80;;;12.60;99.90;;;;;;466742;254;28509;-69
2022/11/02 10:24:50;;;;;;;5.67;2.10;;;12.60;99.90;;;;;;466965;253;28662;-72
2022/11/02 10:26:51;;;;;;;9.57;2.20;;;12.70;99.90;;;;;;466954;254;29053;-70
2022/11/02 10:28:52;;;;;;;5.23;2.10;;;12.60;99.90;;;;;;466962;254;29023;-70
2022/11/02 10:30:54;;;;;;;7.40;2.20;;;12.60;99.90;;;;;;466948;253;28796;-71
2022/11/02 10:32:55;;;;;;;9.97;2.53;;;12.70;99.90;;;;;;466951;254;28731;-71
2022/11/02 10:34:56;;;;;;;8.13;1.90;;;12.70;99.90;;;;;;466960;254;28336;-72
2022/11/02 10:36:57;;;;;;;6.27;2.10;;;12.80;99.90;;;;;;466954;253;28398;-71
2022/11/02 10:38:59;;;;;;;3.30;1.77;;;12.90;99.90;;;;;;466942;254;28396;-72
2022/11/02 10:41:00;;;;;;;6.00;1.87;;;12.90;99.90;;;;;;466959;255;28181;-70
2022/11/02 10:43:01;;;;;;;5.03;1.87;;;13.00;99.90;;;;;;466930;254;28290;-70
2022/11/02 10:45:02;;;;;;;8.43;2.20;;;13.00;99.90;;;;;;466939;254;28628;-72
2022/11/02 10:47:04;;;;;;;3.10;1.87;;;12.90;99.90;;;;;;466963;253;28358;-71